sensor_id;sensor_type;location;lat;lon;timestamp;P1;durP1;ratioP1;P2;durP2;ratioP2
9940;SDS011;5009;50.656;7.188;2024-01-27T05:01:45;10.47;;;3.53;;
9940;SDS011;5009;50.656;7.188;2024-01-27T05:04:11;8.20;;;2.97;;
9940;SDS011;5009;50.656;7.188;2024-01-27T05:06:37;8.27;;;3.50;;
9940;SDS011;5009;50.656;7.188;2024-01-27T05:09:04;13.40;;;3.87;;
9940;SDS011;5009;50.656;7.188;2024-01-27T05:11:31;8.87;;;3.70;;
9940;SDS011;5009;50.656;7.188;2024-01-27T05:13:58;9.30;;;3.50;;
9940;SDS011;5009;50.656;7.188;2024-01-27T05:16:24;9.30;;;3.47;;
9940;SDS011;5009;50.656;7.188;2024-01-27T05:18:49;11.63;;;4.17;;
9940;SDS011;5009;50.656;7.188;2024-01-27T05:21:15;11.10;;;4.73;;
9940;SDS011;5009;50.656;7.188;2024-01-27T05:23:41;14.87;;;3.80;;
9940;SDS011;5009;50.656;7.188;2024-01-27T05:26:06;12.87;;;4.53;;
9940;SDS011;5009;50.656;7.188;2024-01-27T05:28:32;8.67;;;3.30;;
9940;SDS011;5009;50.656;7.188;2024-01-27T05:30:58;9.70;;;3.80;;
9940;SDS011;5009;50.656;7.188;2024-01-27T05:33:24;9.53;;;3.93;;
9940;SDS011;5009;50.656;7.188;2024-01-27T05:35:49;11.63;;;3.80;;
9940;SDS011;5009;50.656;7.188;2024-01-27T05:38:15;9.37;;;3.93;;
9940;SDS011;5009;50.656;7.188;2024-01-27T05:40:41;10.57;;;3.70;;
9940;SDS011;5009;50.656;7.188;2024-01-27T05:43:07;11.33;;;4.37;;
9940;SDS011;5009;50.656;7.188;2024-01-27T05:45:33;9.50;;;3.77;;
9940;SDS011;5009;50.656;7.188;2024-01-27T05:47:58;11.67;;;4.90;;
9940;SDS011;5009;50.656;7.188;2024-01-27T05:50:26;11.63;;;3.83;;
9940;SDS011;5009;50.656;7.188;2024-01-27T05:52:52;6.20;;;3.90;;
9940;SDS011;5009;50.656;7.188;2024-01-27T05:55:17;10.67;;;4.77;;
9940;SDS011;5009;50.656;7.188;2024-01-27T05:57:43;9.77;;;5.07;;
9940;SDS011;5009;50.656;7.188;2024-01-27T06:00:09;12.00;;;4.90;;
9940;SDS011;5009;50.656;7.188;2024-01-27T06:02:35;9.13;;;4.30;;
9940;SDS011;5009;50.656;7.188;2024-01-27T06:05:04;12.17;;;4.10;;
9940;SDS011;5009;50.656;7.188;2024-01-27T06:07:29;14.97;;;4.47;;
9940;SDS011;5009;50.656;7.188;2024-01-27T06:09:55;9.37;;;3.77;;
9940;SDS011;5009;50.656;7.188;2024-01-27T06:12:21;10.50;;;3.90;;
9940;SDS011;5009;50.656;7.188;2024-01-27T06:14:46;9.87;;;4.03;;
9940;SDS011;5009;50.656;7.188;2024-01-27T06:17:12;11.90;;;4.10;;
9940;SDS011;5009;50.656;7.188;2024-01-27T06:19:40;9.33;;;3.90;;
9940;SDS011;5009;50.656;7.188;2024-01-27T06:22:41;10.93;;;3.90;;
9940;SDS011;5009;50.656;7.188;2024-01-27T06:25:07;9.80;;;4.00;;
9940;SDS011;5009;50.656;7.188;2024-01-27T06:27:33;9.30;;;4.10;;
9940;SDS011;5009;50.656;7.188;2024-01-27T06:29:58;10.17;;;3.80;;
9940;SDS011;5009;50.656;7.188;2024-01-27T06:32:24;10.47;;;4.57;;
9940;SDS011;5009;50.656;7.188;2024-01-27T06:34:50;9.57;;;4.53;;
9940;SDS011;5009;50.656;7.188;2024-01-27T06:37:15;8.87;;;4.40;;
9940;SDS011;5009;50.656;7.188;2024-01-27T06:39:41;11.33;;;4.73;;
9940;SDS011;5009;50.656;7.188;2024-01-27T06:42:06;12.40;;;4.97;;
9940;SDS011;5009;50.656;7.188;2024-01-27T06:44:32;10.77;;;4.63;;
9940;SDS011;5009;50.656;7.188;2024-01-27T06:46:57;9.03;;;3.90;;
9940;SDS011;5009;50.656;7.188;2024-01-27T06:49:23;11.90;;;4.50;;
9940;SDS011;5009;50.656;7.188;2024-01-27T06:51:48;9.97;;;4.47;;
9940;SDS011;5009;50.656;7.188;2024-01-27T06:54:14;11.73;;;4.23;;
9940;SDS011;5009;50.656;7.188;2024-01-27T06:56:39;9.07;;;4.10;;
9940;SDS011;5009;50.656;7.188;2024-01-27T06:59:05;11.30;;;4.47;;
9940;SDS011;5009;50.656;7.188;2024-01-27T07:01:31;11.23;;;4.30;;
9940;SDS011;5009;50.656;7.188;2024-01-27T07:03:56;12.87;;;4.70;;
9940;SDS011;5009;50.656;7.188;2024-01-27T07:06:22;8.80;;;4.30;;
9940;SDS011;5009;50.656;7.188;2024-01-27T07:08:47;10.03;;;4.43;;
9940;SDS011;5009;50.656;7.188;2024-01-27T07:11:13;10.17;;;4.00;;
9940;SDS011;5009;50.656;7.188;2024-01-27T07:13:38;12.37;;;4.53;;
9940;SDS011;5009;50.656;7.188;2024-01-27T07:16:05;13.10;;;4.90;;
9940;SDS011;5009;50.656;7.188;2024-01-27T07:18:31;6.10;;;3.97;;
9940;SDS011;5009;50.656;7.188;2024-01-27T07:20:57;15.80;;;4.57;;
9940;SDS011;5009;50.656;7.188;2024-01-27T07:23:24;8.27;;;4.07;;
9940;SDS011;5009;50.656;7.188;2024-01-27T07:25:50;11.80;;;4.87;;
9940;SDS011;5009;50.656;7.188;2024-01-27T07:28:15;7.90;;;4.27;;
9940;SDS011;5009;50.656;7.188;2024-01-27T07:30:43;15.97;;;5.63;;
9940;SDS011;5009;50.656;7.188;2024-01-27T07:33:09;10.70;;;5.27;;
9940;SDS011;5009;50.656;7.188;2024-01-27T07:35:34;8.10;;;3.90;;
9940;SDS011;5009;50.656;7.188;2024-01-27T07:38:00;8.93;;;4.50;;
9940;SDS011;5009;50.656;7.188;2024-01-27T07:40:26;9.37;;;4.67;;
9940;SDS011;5009;50.656;7.188;2024-01-27T07:42:51;11.77;;;4.03;;
9940;SDS011;5009;50.656;7.188;2024-01-27T07:45:17;10.93;;;4.50;;
9940;SDS011;5009;50.656;7.188;2024-01-27T07:47:43;10.60;;;4.30;;
9940;SDS011;5009;50.656;7.188;2024-01-27T07:50:08;8.87;;;4.17;;
9940;SDS011;5009;50.656;7.188;2024-01-27T07:52:35;9.57;;;4.23;;
9940;SDS011;5009;50.656;7.188;2024-01-27T07:55:01;7.27;;;3.90;;
9940;SDS011;5009;50.656;7.188;2024-01-27T07:57:27;8.00;;;3.97;;
9940;SDS011;5009;50.656;7.188;2024-01-27T07:59:52;9.47;;;3.70;;
9940;SDS011;5009;50.656;7.188;2024-01-27T08:02:18;10.03;;;4.03;;
9940;SDS011;5009;50.656;7.188;2024-01-27T08:04:43;9.53;;;4.63;;
9940;SDS011;5009;50.656;7.188;2024-01-27T08:07:09;12.40;;;4.50;;
9940;SDS011;5009;50.656;7.188;2024-01-27T08:09:35;8.37;;;4.23;;
9940;SDS011;5009;50.656;7.188;2024-01-27T08:12:03;14.73;;;4.73;;
9940;SDS011;5009;50.656;7.188;2024-01-27T08:14:28;10.03;;;5.40;;
9940;SDS011;5009;50.656;7.188;2024-01-27T08:16:58;7.33;;;4.60;;
9940;SDS011;5009;50.656;7.188;2024-01-27T08:19:23;9.07;;;4.37;;
9940;SDS011;5009;50.656;7.188;2024-01-27T08:22:44;15.50;;;4.27;;
9940;SDS011;5009;50.656;7.188;2024-01-27T08:25:11;11.17;;;4.80;;
9940;SDS011;5009;50.656;7.188;2024-01-27T08:27:36;10.30;;;4.07;;
9940;SDS011;5009;50.656;7.188;2024-01-27T08:30:02;12.67;;;4.63;;
9940;SDS011;5009;50.656;7.188;2024-01-27T08:32:27;8.93;;;4.40;;
9940;SDS011;5009;50.656;7.188;2024-01-27T08:34:53;12.23;;;4.87;;
9940;SDS011;5009;50.656;7.188;2024-01-27T08:37:19;8.40;;;4.37;;
9940;SDS011;5009;50.656;7.188;2024-01-27T08:39:45;14.63;;;5.50;;
9940;SDS011;5009;50.656;7.188;2024-01-27T08:42:11;10.00;;;5.00;;
9940;SDS011;5009;50.656;7.188;2024-01-27T08:44:37;9.67;;;4.80;;
9940;SDS011;5009;50.656;7.188;2024-01-27T08:47:03;9.33;;;4.77;;
9940;SDS011;5009;50.656;7.188;2024-01-27T08:49:30;10.00;;;4.93;;
9940;SDS011;5009;50.656;7.188;2024-01-27T08:51:55;8.50;;;5.00;;
9940;SDS011;5009;50.656;7.188;2024-01-27T08:54:21;11.00;;;5.30;;
9940;SDS011;5009;50.656;7.188;2024-01-27T08:56:47;8.53;;;4.90;;
9940;SDS011;5009;50.656;7.188;2024-01-27T08:59:12;12.33;;;5.10;;
9940;SDS011;5009;50.656;7.188;2024-01-27T09:01:38;12.67;;;5.23;;
9940;SDS011;5009;50.656;7.188;2024-01-27T09:04:03;13.50;;;5.00;;
9940;SDS011;5009;50.656;7.188;2024-01-27T09:06:29;9.60;;;4.23;;
9940;SDS011;5009;50.656;7.188;2024-01-27T09:08:54;11.47;;;5.27;;
9940;SDS011;5009;50.656;7.188;2024-01-27T09:11:20;11.87;;;4.90;;
9940;SDS011;5009;50.656;7.188;2024-01-27T09:13:47;10.80;;;5.37;;
9940;SDS011;5009;50.656;7.188;2024-01-27T09:16:14;13.70;;;5.30;;
9940;SDS011;5009;50.656;7.188;2024-01-27T09:18:40;10.37;;;4.83;;
9940;SDS011;5009;50.656;7.188;2024-01-27T09:21:06;11.77;;;5.67;;
9940;SDS011;5009;50.656;7.188;2024-01-27T09:23:31;9.60;;;4.63;;
9940;SDS011;5009;50.656;7.188;2024-01-27T09:25:57;8.63;;;4.53;;
9940;SDS011;5009;50.656;7.188;2024-01-27T09:28:23;10.57;;;4.63;;
9940;SDS011;5009;50.656;7.188;2024-01-27T09:30:49;8.43;;;5.00;;
9940;SDS011;5009;50.656;7.188;2024-01-27T09:33:14;12.10;;;4.87;;
9940;SDS011;5009;50.656;7.188;2024-01-27T09:35:42;10.20;;;4.37;;
9940;SDS011;5009;50.656;7.188;2024-01-27T09:38:08;10.67;;;4.40;;
9940;SDS011;5009;50.656;7.188;2024-01-27T09:40:36;14.80;;;4.13;;
9940;SDS011;5009;50.656;7.188;2024-01-27T09:43:02;48.20;;;5.97;;
9940;SDS011;5009;50.656;7.188;2024-01-27T09:45:27;13.73;;;4.20;;
9940;SDS011;5009;50.656;7.188;2024-01-27T09:47:56;7.53;;;3.80;;
9940;SDS011;5009;50.656;7.188;2024-01-27T09:50:23;10.73;;;4.33;;
9940;SDS011;5009;50.656;7.188;2024-01-27T09:52:48;12.77;;;4.37;;
9940;SDS011;5009;50.656;7.188;2024-01-27T09:55:14;13.37;;;4.53;;
9940;SDS011;5009;50.656;7.188;2024-01-27T09:57:39;14.03;;;4.87;;
9940;SDS011;5009;50.656;7.188;2024-01-27T10:00:05;12.00;;;4.70;;
9940;SDS011;5009;50.656;7.188;2024-01-27T10:02:34;10.63;;;3.93;;
9940;SDS011;5009;50.656;7.188;2024-01-27T10:05:00;12.70;;;4.27;;
9940;SDS011;5009;50.656;7.188;2024-01-27T10:07:29;13.27;;;4.73;;
9940;SDS011;5009;50.656;7.188;2024-01-27T10:09:56;9.90;;;4.27;;
9940;SDS011;5009;50.656;7.188;2024-01-27T10:12:22;9.00;;;4.77;;
9940;SDS011;5009;50.656;7.188;2024-01-27T10:14:50;15.10;;;4.63;;
9940;SDS011;5009;50.656;7.188;2024-01-27T10:17:21;9.83;;;4.50;;
9940;SDS011;5009;50.656;7.188;2024-01-27T10:20:02;9.33;;;4.33;;
9940;SDS011;5009;50.656;7.188;2024-01-27T10:22:36;10.40;;;4.23;;
9940;SDS011;5009;50.656;7.188;2024-01-27T10:25:03;9.20;;;4.23;;
9940;SDS011;5009;50.656;7.188;2024-01-27T10:27:29;10.23;;;4.77;;
9940;SDS011;5009;50.656;7.188;2024-01-27T10:29:54;11.33;;;4.13;;
9940;SDS011;5009;50.656;7.188;2024-01-27T10:32:21;13.73;;;4.73;;
9940;SDS011;5009;50.656;7.188;2024-01-27T10:34:49;11.03;;;4.33;;
9940;SDS011;5009;50.656;7.188;2024-01-27T10:37:16;10.57;;;4.50;;
9940;SDS011;5009;50.656;7.188;2024-01-27T10:39:48;11.90;;;4.50;;
9940;SDS011;5009;50.656;7.188;2024-01-27T10:42:14;10.67;;;4.70;;
9940;SDS011;5009;50.656;7.188;2024-01-27T10:44:40;9.60;;;4.03;;
9940;SDS011;5009;50.656;7.188;2024-01-27T10:47:08;10.33;;;4.40;;
9940;SDS011;5009;50.656;7.188;2024-01-27T10:49:42;7.27;;;3.83;;
9940;SDS011;5009;50.656;7.188;2024-01-27T10:52:10;13.07;;;4.50;;
9940;SDS011;5009;50.656;7.188;2024-01-27T10:54:39;10.27;;;4.43;;
9940;SDS011;5009;50.656;7.188;2024-01-27T10:57:06;8.97;;;3.93;;
9940;SDS011;5009;50.656;7.188;2024-01-27T10:59:34;12.20;;;4.30;;
9940;SDS011;5009;50.656;7.188;2024-01-27T11:02:01;10.73;;;4.03;;
9940;SDS011;5009;50.656;7.188;2024-01-27T11:04:29;8.63;;;4.37;;
9940;SDS011;5009;50.656;7.188;2024-01-27T11:06:57;8.53;;;4.07;;
9940;SDS011;5009;50.656;7.188;2024-01-27T11:09:24;13.43;;;4.53;;
9940;SDS011;5009;50.656;7.188;2024-01-27T11:11:50;7.40;;;4.23;;
9940;SDS011;5009;50.656;7.188;2024-01-27T11:14:16;8.37;;;3.97;;
9940;SDS011;5009;50.656;7.188;2024-01-27T11:16:42;9.90;;;3.97;;
9940;SDS011;5009;50.656;7.188;2024-01-27T11:19:12;11.37;;;3.93;;
9940;SDS011;5009;50.656;7.188;2024-01-27T11:21:38;10.00;;;4.30;;
9940;SDS011;5009;50.656;7.188;2024-01-27T11:24:16;8.77;;;4.00;;
9940;SDS011;5009;50.656;7.188;2024-01-27T11:26:43;11.07;;;3.93;;
9940;SDS011;5009;50.656;7.188;2024-01-27T11:29:09;9.10;;;4.27;;
9940;SDS011;5009;50.656;7.188;2024-01-27T11:31:43;7.80;;;4.30;;
9940;SDS011;5009;50.656;7.188;2024-01-27T11:34:10;12.07;;;4.17;;
9940;SDS011;5009;50.656;7.188;2024-01-27T11:36:37;13.37;;;4.37;;
9940;SDS011;5009;50.656;7.188;2024-01-27T11:39:03;11.87;;;5.17;;
9940;SDS011;5009;50.656;7.188;2024-01-27T11:41:29;12.43;;;4.87;;
9940;SDS011;5009;50.656;7.188;2024-01-27T11:43:56;13.00;;;4.60;;
9940;SDS011;5009;50.656;7.188;2024-01-27T11:46:26;13.07;;;5.13;;
9940;SDS011;5009;50.656;7.188;2024-01-27T11:48:52;10.73;;;4.20;;
9940;SDS011;5009;50.656;7.188;2024-01-27T11:51:18;9.73;;;4.67;;
9940;SDS011;5009;50.656;7.188;2024-01-27T11:53:44;13.30;;;5.07;;
9940;SDS011;5009;50.656;7.188;2024-01-27T11:56:10;8.20;;;4.27;;
9940;SDS011;5009;50.656;7.188;2024-01-27T11:58:36;10.73;;;4.30;;
9940;SDS011;5009;50.656;7.188;2024-01-27T12:01:01;11.07;;;4.40;;
9940;SDS011;5009;50.656;7.188;2024-01-27T12:03:27;10.13;;;3.77;;
9940;SDS011;5009;50.656;7.188;2024-01-27T12:05:55;10.47;;;4.10;;
9940;SDS011;5009;50.656;7.188;2024-01-27T12:08:20;8.90;;;3.90;;
9940;SDS011;5009;50.656;7.188;2024-01-27T12:10:46;12.83;;;4.43;;
9940;SDS011;5009;50.656;7.188;2024-01-27T12:13:12;11.37;;;3.77;;
9940;SDS011;5009;50.656;7.188;2024-01-27T12:15:38;6.67;;;3.30;;
9940;SDS011;5009;50.656;7.188;2024-01-27T12:18:06;8.80;;;3.53;;
9940;SDS011;5009;50.656;7.188;2024-01-27T12:20:32;10.37;;;3.57;;
9940;SDS011;5009;50.656;7.188;2024-01-27T12:23:07;7.57;;;4.23;;
9940;SDS011;5009;50.656;7.188;2024-01-27T12:25:33;9.60;;;4.20;;
9940;SDS011;5009;50.656;7.188;2024-01-27T12:28:05;11.27;;;4.00;;
9940;SDS011;5009;50.656;7.188;2024-01-27T12:30:32;9.53;;;4.30;;
9940;SDS011;5009;50.656;7.188;2024-01-27T12:32:59;10.17;;;4.13;;
9940;SDS011;5009;50.656;7.188;2024-01-27T12:35:25;9.03;;;4.37;;
9940;SDS011;5009;50.656;7.188;2024-01-27T12:37:52;9.10;;;4.03;;
9940;SDS011;5009;50.656;7.188;2024-01-27T12:40:19;11.03;;;4.03;;
9940;SDS011;5009;50.656;7.188;2024-01-27T12:42:45;7.37;;;4.60;;
9940;SDS011;5009;50.656;7.188;2024-01-27T12:45:12;12.23;;;4.60;;
9940;SDS011;5009;50.656;7.188;2024-01-27T12:47:38;9.80;;;4.40;;
9940;SDS011;5009;50.656;7.188;2024-01-27T12:50:04;10.20;;;4.27;;
9940;SDS011;5009;50.656;7.188;2024-01-27T12:52:31;11.33;;;4.87;;
9940;SDS011;5009;50.656;7.188;2024-01-27T12:54:56;9.70;;;4.20;;
9940;SDS011;5009;50.656;7.188;2024-01-27T12:57:22;7.80;;;3.60;;
9940;SDS011;5009;50.656;7.188;2024-01-27T12:59:48;10.87;;;4.30;;
9940;SDS011;5009;50.656;7.188;2024-01-27T13:02:13;13.80;;;4.40;;
9940;SDS011;5009;50.656;7.188;2024-01-27T13:04:40;10.10;;;4.10;;
9940;SDS011;5009;50.656;7.188;2024-01-27T13:07:06;13.00;;;4.43;;
9940;SDS011;5009;50.656;7.188;2024-01-27T13:09:32;11.27;;;4.17;;
9940;SDS011;5009;50.656;7.188;2024-01-27T13:11:57;9.80;;;4.40;;
9940;SDS011;5009;50.656;7.188;2024-01-27T13:14:23;9.97;;;4.17;;
9940;SDS011;5009;50.656;7.188;2024-01-27T13:16:49;9.33;;;4.00;;
9940;SDS011;5009;50.656;7.188;2024-01-27T13:19:14;8.60;;;4.20;;
9940;SDS011;5009;50.656;7.188;2024-01-27T13:21:40;10.87;;;4.13;;
9940;SDS011;5009;50.656;7.188;2024-01-27T13:24:06;11.50;;;4.20;;
9940;SDS011;5009;50.656;7.188;2024-01-27T13:26:34;11.43;;;4.60;;
9940;SDS011;5009;50.656;7.188;2024-01-27T13:29:03;13.10;;;4.27;;
9940;SDS011;5009;50.656;7.188;2024-01-27T13:31:29;11.27;;;4.00;;
9940;SDS011;5009;50.656;7.188;2024-01-27T13:33:55;7.73;;;3.90;;
9940;SDS011;5009;50.656;7.188;2024-01-27T13:36:22;8.87;;;3.90;;
9940;SDS011;5009;50.656;7.188;2024-01-27T13:38:48;12.07;;;4.43;;
9940;SDS011;5009;50.656;7.188;2024-01-27T13:41:13;11.43;;;4.13;;
9940;SDS011;5009;50.656;7.188;2024-01-27T13:43:40;9.13;;;4.47;;
9940;SDS011;5009;50.656;7.188;2024-01-27T13:46:06;8.57;;;3.90;;
9940;SDS011;5009;50.656;7.188;2024-01-27T13:48:31;8.70;;;4.13;;
9940;SDS011;5009;50.656;7.188;2024-01-27T13:50:57;13.20;;;3.90;;
9940;SDS011;5009;50.656;7.188;2024-01-27T13:53:23;10.03;;;3.57;;
9940;SDS011;5009;50.656;7.188;2024-01-27T13:55:49;11.20;;;3.60;;
9940;SDS011;5009;50.656;7.188;2024-01-27T13:58:14;9.40;;;3.67;;
9940;SDS011;5009;50.656;7.188;2024-01-27T14:00:40;11.37;;;3.97;;
9940;SDS011;5009;50.656;7.188;2024-01-27T14:03:06;5.80;;;3.23;;
9940;SDS011;5009;50.656;7.188;2024-01-27T14:05:31;9.00;;;3.30;;
9940;SDS011;5009;50.656;7.188;2024-01-27T14:07:57;7.53;;;3.50;;
9940;SDS011;5009;50.656;7.188;2024-01-27T14:10:23;8.27;;;3.47;;
9940;SDS011;5009;50.656;7.188;2024-01-27T14:12:49;6.77;;;3.20;;
9940;SDS011;5009;50.656;7.188;2024-01-27T14:15:15;8.03;;;3.30;;
9940;SDS011;5009;50.656;7.188;2024-01-27T14:17:42;9.67;;;3.33;;
9940;SDS011;5009;50.656;7.188;2024-01-27T14:20:08;10.93;;;3.60;;
9940;SDS011;5009;50.656;7.188;2024-01-27T14:22:34;8.43;;;3.20;;
9940;SDS011;5009;50.656;7.188;2024-01-27T14:25:01;7.10;;;3.27;;
9940;SDS011;5009;50.656;7.188;2024-01-27T14:27:27;8.93;;;3.57;;
9940;SDS011;5009;50.656;7.188;2024-01-27T14:29:53;7.50;;;3.47;;
9940;SDS011;5009;50.656;7.188;2024-01-27T14:32:19;5.43;;;2.77;;
9940;SDS011;5009;50.656;7.188;2024-01-27T14:34:46;12.33;;;3.03;;
9940;SDS011;5009;50.656;7.188;2024-01-27T14:37:12;8.77;;;3.30;;
9940;SDS011;5009;50.656;7.188;2024-01-27T14:39:38;10.73;;;3.53;;
9940;SDS011;5009;50.656;7.188;2024-01-27T14:42:07;8.60;;;3.00;;
9940;SDS011;5009;50.656;7.188;2024-01-27T14:44:33;6.93;;;3.10;;
9940;SDS011;5009;50.656;7.188;2024-01-27T14:46:58;8.33;;;3.17;;
9940;SDS011;5009;50.656;7.188;2024-01-27T14:49:24;6.93;;;2.83;;
9940;SDS011;5009;50.656;7.188;2024-01-27T14:51:49;10.73;;;3.20;;
9940;SDS011;5009;50.656;7.188;2024-01-27T14:54:16;10.73;;;3.60;;
9940;SDS011;5009;50.656;7.188;2024-01-27T14:56:41;8.23;;;3.50;;
9940;SDS011;5009;50.656;7.188;2024-01-27T14:59:07;8.73;;;3.40;;
9940;SDS011;5009;50.656;7.188;2024-01-27T15:01:33;8.83;;;3.63;;
9940;SDS011;5009;50.656;7.188;2024-01-27T15:03:58;9.23;;;4.03;;
9940;SDS011;5009;50.656;7.188;2024-01-27T15:06:27;7.83;;;3.50;;
9940;SDS011;5009;50.656;7.188;2024-01-27T15:08:53;11.27;;;3.50;;
9940;SDS011;5009;50.656;7.188;2024-01-27T15:11:18;8.00;;;3.97;;
9940;SDS011;5009;50.656;7.188;2024-01-27T15:13:44;15.00;;;3.70;;
9940;SDS011;5009;50.656;7.188;2024-01-27T15:16:10;8.43;;;3.57;;
9940;SDS011;5009;50.656;7.188;2024-01-27T15:18:36;8.67;;;3.77;;
9940;SDS011;5009;50.656;7.188;2024-01-27T15:21:05;8.03;;;3.47;;
9940;SDS011;5009;50.656;7.188;2024-01-27T15:23:31;8.57;;;3.90;;
9940;SDS011;5009;50.656;7.188;2024-01-27T15:25:57;9.90;;;3.27;;
9940;SDS011;5009;50.656;7.188;2024-01-27T15:28:24;9.13;;;4.27;;
9940;SDS011;5009;50.656;7.188;2024-01-27T15:30:50;7.50;;;3.83;;
9940;SDS011;5009;50.656;7.188;2024-01-27T15:33:15;19.27;;;6.47;;
9940;SDS011;5009;50.656;7.188;2024-01-27T15:35:41;20.90;;;9.57;;
9940;SDS011;5009;50.656;7.188;2024-01-27T15:38:06;18.60;;;9.23;;
9940;SDS011;5009;50.656;7.188;2024-01-27T15:40:33;13.90;;;6.63;;
9940;SDS011;5009;50.656;7.188;2024-01-27T15:42:58;15.73;;;5.57;;
9940;SDS011;5009;50.656;7.188;2024-01-27T15:45:24;17.90;;;8.63;;
9940;SDS011;5009;50.656;7.188;2024-01-27T15:47:50;16.50;;;8.93;;
9940;SDS011;5009;50.656;7.188;2024-01-27T15:50:15;10.30;;;5.13;;
9940;SDS011;5009;50.656;7.188;2024-01-27T15:52:43;9.57;;;4.23;;
9940;SDS011;5009;50.656;7.188;2024-01-27T15:55:09;9.63;;;3.87;;
9940;SDS011;5009;50.656;7.188;2024-01-27T15:57:34;12.20;;;3.97;;
9940;SDS011;5009;50.656;7.188;2024-01-27T16:00:02;9.00;;;5.70;;
9940;SDS011;5009;50.656;7.188;2024-01-27T16:02:29;12.10;;;6.10;;
9940;SDS011;5009;50.656;7.188;2024-01-27T16:04:54;10.27;;;5.47;;
9940;SDS011;5009;50.656;7.188;2024-01-27T16:07:20;11.80;;;5.47;;
9940;SDS011;5009;50.656;7.188;2024-01-27T16:09:48;10.57;;;4.10;;
9940;SDS011;5009;50.656;7.188;2024-01-27T16:12:15;9.50;;;4.50;;
9940;SDS011;5009;50.656;7.188;2024-01-27T16:14:40;12.03;;;5.10;;
9940;SDS011;5009;50.656;7.188;2024-01-27T16:17:06;8.67;;;5.57;;
9940;SDS011;5009;50.656;7.188;2024-01-27T16:19:32;15.17;;;7.37;;
9940;SDS011;5009;50.656;7.188;2024-01-27T16:21:57;11.83;;;6.83;;
9940;SDS011;5009;50.656;7.188;2024-01-27T16:24:23;16.03;;;8.37;;
9940;SDS011;5009;50.656;7.188;2024-01-27T16:26:48;13.40;;;6.87;;
9940;SDS011;5009;50.656;7.188;2024-01-27T16:29:15;14.13;;;5.30;;
9940;SDS011;5009;50.656;7.188;2024-01-27T16:31:41;13.83;;;6.40;;
9940;SDS011;5009;50.656;7.188;2024-01-27T16:34:07;14.93;;;6.77;;
9940;SDS011;5009;50.656;7.188;2024-01-27T16:36:32;14.77;;;6.23;;
9940;SDS011;5009;50.656;7.188;2024-01-27T16:38:58;17.63;;;8.97;;
9940;SDS011;5009;50.656;7.188;2024-01-27T16:41:23;16.93;;;9.10;;
9940;SDS011;5009;50.656;7.188;2024-01-27T16:43:49;13.90;;;9.10;;
9940;SDS011;5009;50.656;7.188;2024-01-27T16:46:16;10.53;;;5.93;;
9940;SDS011;5009;50.656;7.188;2024-01-27T16:48:42;10.63;;;5.93;;
9940;SDS011;5009;50.656;7.188;2024-01-27T16:51:07;11.47;;;5.40;;
9940;SDS011;5009;50.656;7.188;2024-01-27T16:53:33;13.27;;;5.73;;
9940;SDS011;5009;50.656;7.188;2024-01-27T16:56:00;13.27;;;5.97;;
9940;SDS011;5009;50.656;7.188;2024-01-27T16:58:26;14.57;;;7.03;;
9940;SDS011;5009;50.656;7.188;2024-01-27T17:00:52;16.17;;;8.13;;
9940;SDS011;5009;50.656;7.188;2024-01-27T17:03:18;13.90;;;7.27;;
9940;SDS011;5009;50.656;7.188;2024-01-27T17:05:44;11.80;;;6.87;;
9940;SDS011;5009;50.656;7.188;2024-01-27T17:08:10;15.40;;;6.73;;
9940;SDS011;5009;50.656;7.188;2024-01-27T17:10:36;16.87;;;8.80;;
9940;SDS011;5009;50.656;7.188;2024-01-27T17:13:01;15.90;;;8.47;;
9940;SDS011;5009;50.656;7.188;2024-01-27T17:15:27;14.07;;;7.70;;
9940;SDS011;5009;50.656;7.188;2024-01-27T17:17:52;14.30;;;8.07;;
9940;SDS011;5009;50.656;7.188;2024-01-27T17:20:18;12.47;;;7.37;;
9940;SDS011;5009;50.656;7.188;2024-01-27T17:22:44;13.13;;;6.97;;
9940;SDS011;5009;50.656;7.188;2024-01-27T17:25:10;16.67;;;7.97;;
9940;SDS011;5009;50.656;7.188;2024-01-27T17:27:36;13.90;;;9.97;;
9940;SDS011;5009;50.656;7.188;2024-01-27T17:30:01;14.80;;;8.80;;
9940;SDS011;5009;50.656;7.188;2024-01-27T17:32:29;12.67;;;7.67;;
9940;SDS011;5009;50.656;7.188;2024-01-27T17:34:55;16.27;;;7.33;;
9940;SDS011;5009;50.656;7.188;2024-01-27T17:37:20;11.23;;;7.17;;
9940;SDS011;5009;50.656;7.188;2024-01-27T17:39:46;13.07;;;7.10;;
9940;SDS011;5009;50.656;7.188;2024-01-27T17:42:12;9.83;;;6.60;;
9940;SDS011;5009;50.656;7.188;2024-01-27T17:44:43;14.83;;;7.07;;
9940;SDS011;5009;50.656;7.188;2024-01-27T17:47:09;12.13;;;6.57;;
9940;SDS011;5009;50.656;7.188;2024-01-27T17:49:35;11.43;;;6.70;;
9940;SDS011;5009;50.656;7.188;2024-01-27T17:52:00;14.40;;;7.90;;
9940;SDS011;5009;50.656;7.188;2024-01-27T17:54:26;13.67;;;7.10;;
9940;SDS011;5009;50.656;7.188;2024-01-27T17:56:53;16.30;;;7.17;;
9940;SDS011;5009;50.656;7.188;2024-01-27T17:59:20;12.60;;;7.73;;
9940;SDS011;5009;50.656;7.188;2024-01-27T18:01:46;17.63;;;8.80;;
9940;SDS011;5009;50.656;7.188;2024-01-27T18:04:12;15.83;;;9.47;;
9940;SDS011;5009;50.656;7.188;2024-01-27T18:06:39;16.33;;;9.03;;
9940;SDS011;5009;50.656;7.188;2024-01-27T18:09:05;15.03;;;10.53;;
9940;SDS011;5009;50.656;7.188;2024-01-27T18:11:30;25.57;;;16.83;;
9940;SDS011;5009;50.656;7.188;2024-01-27T18:13:56;27.70;;;20.37;;
9940;SDS011;5009;50.656;7.188;2024-01-27T18:16:21;43.43;;;32.33;;
9940;SDS011;5009;50.656;7.188;2024-01-27T18:18:50;69.53;;;52.43;;
9940;SDS011;5009;50.656;7.188;2024-01-27T18:21:15;52.33;;;38.03;;
9940;SDS011;5009;50.656;7.188;2024-01-27T18:23:41;30.87;;;22.97;;
9940;SDS011;5009;50.656;7.188;2024-01-27T18:26:08;22.93;;;14.70;;
9940;SDS011;5009;50.656;7.188;2024-01-27T18:28:34;21.40;;;14.33;;
9940;SDS011;5009;50.656;7.188;2024-01-27T18:31:00;25.80;;;14.47;;
9940;SDS011;5009;50.656;7.188;2024-01-27T18:33:25;30.07;;;20.33;;
9940;SDS011;5009;50.656;7.188;2024-01-27T18:35:51;43.77;;;28.60;;
9940;SDS011;5009;50.656;7.188;2024-01-27T18:38:17;27.37;;;17.73;;
9940;SDS011;5009;50.656;7.188;2024-01-27T18:40:42;15.10;;;9.93;;
9940;SDS011;5009;50.656;7.188;2024-01-27T18:43:08;19.10;;;9.40;;
9940;SDS011;5009;50.656;7.188;2024-01-27T18:45:33;17.10;;;9.87;;
9940;SDS011;5009;50.656;7.188;2024-01-27T18:47:59;18.50;;;10.17;;
9940;SDS011;5009;50.656;7.188;2024-01-27T18:50:25;19.40;;;9.40;;
9940;SDS011;5009;50.656;7.188;2024-01-27T18:52:52;15.60;;;8.60;;
9940;SDS011;5009;50.656;7.188;2024-01-27T18:55:20;16.50;;;9.27;;
9940;SDS011;5009;50.656;7.188;2024-01-27T18:57:52;13.83;;;8.43;;
9940;SDS011;5009;50.656;7.188;2024-01-27T19:00:17;12.33;;;8.43;;
9940;SDS011;5009;50.656;7.188;2024-01-27T19:02:43;12.47;;;8.53;;
9940;SDS011;5009;50.656;7.188;2024-01-27T19:05:09;14.13;;;7.83;;
9940;SDS011;5009;50.656;7.188;2024-01-27T19:07:35;17.63;;;7.90;;
9940;SDS011;5009;50.656;7.188;2024-01-27T19:10:00;11.93;;;7.73;;
9940;SDS011;5009;50.656;7.188;2024-01-27T19:12:27;14.03;;;7.97;;
9940;SDS011;5009;50.656;7.188;2024-01-27T19:14:52;16.93;;;8.73;;
9940;SDS011;5009;50.656;7.188;2024-01-27T19:17:18;18.77;;;8.80;;
9940;SDS011;5009;50.656;7.188;2024-01-27T19:19:43;18.20;;;8.80;;
9940;SDS011;5009;50.656;7.188;2024-01-27T19:22:10;16.87;;;9.70;;
9940;SDS011;5009;50.656;7.188;2024-01-27T19:24:35;18.10;;;10.17;;
9940;SDS011;5009;50.656;7.188;2024-01-27T19:27:01;13.30;;;10.37;;
9940;SDS011;5009;50.656;7.188;2024-01-27T19:29:28;17.00;;;10.00;;
9940;SDS011;5009;50.656;7.188;2024-01-27T19:31:54;17.43;;;10.33;;
9940;SDS011;5009;50.656;7.188;2024-01-27T19:34:19;13.07;;;9.33;;
9940;SDS011;5009;50.656;7.188;2024-01-27T19:36:45;20.03;;;10.40;;
9940;SDS011;5009;50.656;7.188;2024-01-27T19:39:10;16.90;;;10.43;;
9940;SDS011;5009;50.656;7.188;2024-01-27T19:41:36;16.00;;;9.50;;
9940;SDS011;5009;50.656;7.188;2024-01-27T19:44:03;19.17;;;9.00;;
9940;SDS011;5009;50.656;7.188;2024-01-27T19:46:28;20.17;;;9.83;;
9940;SDS011;5009;50.656;7.188;2024-01-27T19:48:54;14.80;;;9.90;;
9940;SDS011;5009;50.656;7.188;2024-01-27T19:51:20;22.20;;;10.10;;
9940;SDS011;5009;50.656;7.188;2024-01-27T19:53:45;19.87;;;9.83;;
9940;SDS011;5009;50.656;7.188;2024-01-27T19:56:11;16.70;;;10.20;;
9940;SDS011;5009;50.656;7.188;2024-01-27T19:58:36;19.80;;;10.33;;
9940;SDS011;5009;50.656;7.188;2024-01-27T20:01:02;20.67;;;10.83;;